createdAt,value
2023-05-05T00:01:37.885Z,99.90
2023-05-05T00:04:07.653Z,99.90
2023-05-05T00:06:36.717Z,99.90
2023-05-05T00:09:05.771Z,99.90
2023-05-05T00:11:35.154Z,99.90
2023-05-05T00:14:03.724Z,99.90
2023-05-05T00:16:32.531Z,99.90
2023-05-05T00:19:02.706Z,99.90
2023-05-05T00:21:31.477Z,99.90
2023-05-05T00:24:00.051Z,99.90
2023-05-05T00:26:29.010Z,99.90
2023-05-05T00:28:58.588Z,99.90
2023-05-05T00:31:28.029Z,99.90
2023-05-05T00:33:59.793Z,99.90
2023-05-05T00:36:31.119Z,99.90
2023-05-05T00:39:00.255Z,99.90
2023-05-05T00:41:29.323Z,99.90
2023-05-05T00:43:58.225Z,99.90
2023-05-05T00:46:29.839Z,99.90
2023-05-05T00:49:00.093Z,99.90
2023-05-05T00:51:32.125Z,99.90
2023-05-05T00:54:01.441Z,99.90
2023-05-05T00:56:30.997Z,99.90
2023-05-05T00:59:00.277Z,99.90
2023-05-05T01:01:29.763Z,99.90
2023-05-05T01:03:59.657Z,99.90
2023-05-05T01:06:42.793Z,99.90
2023-05-05T01:09:21.734Z,99.90
2023-05-05T01:12:01.007Z,99.90
2023-05-05T01:14:40.020Z,99.90
2023-05-05T01:17:15.936Z,99.90
2023-05-05T01:20:08.300Z,99.90
2023-05-05T01:22:44.264Z,99.90
2023-05-05T01:25:51.199Z,99.90
2023-05-05T01:28:36.133Z,99.90
2023-05-05T01:31:37.606Z,99.90
2023-05-05T01:34:10.941Z,99.90
2023-05-05T01:36:44.123Z,99.90
2023-05-05T01:39:17.867Z,99.90
2023-05-05T01:41:50.819Z,99.90
2023-05-05T01:44:22.121Z,99.90
2023-05-05T01:46:54.695Z,99.90
2023-05-05T01:49:24.960Z,99.90
2023-05-05T01:51:55.487Z,99.90
2023-05-05T01:54:25.791Z,99.90
2023-05-05T01:56:58.005Z,99.90
2023-05-05T01:59:28.135Z,99.90
2023-05-05T02:02:03.326Z,99.90
2023-05-05T02:04:34.853Z,99.90
2023-05-05T02:07:06.989Z,99.90
2023-05-05T02:09:38.113Z,99.90
2023-05-05T02:12:09.032Z,99.90
2023-05-05T02:14:40.260Z,99.90
2023-05-05T02:17:12.308Z,99.90
2023-05-05T02:19:48.118Z,99.90
2023-05-05T02:22:17.546Z,99.90
2023-05-05T02:24:46.801Z,99.90
2023-05-05T02:27:22.171Z,99.90
2023-05-05T02:29:56.963Z,99.90
2023-05-05T02:32:35.974Z,99.90
2023-05-05T02:35:12.516Z,99.90
2023-05-05T02:37:48.493Z,99.90
2023-05-05T02:40:26.060Z,99.90
2023-05-05T02:43:03.243Z,99.90
2023-05-05T02:45:35.149Z,99.90
2023-05-05T02:48:06.565Z,99.90
2023-05-05T02:50:40.377Z,99.90
2023-05-05T02:53:36.412Z,99.90
2023-05-05T02:56:17.437Z,99.90
2023-05-05T02:58:56.268Z,99.90
2023-05-05T03:01:33.702Z,99.90
2023-05-05T03:04:13.861Z,99.90
2023-05-05T03:06:51.597Z,99.90
2023-05-05T03:09:29.645Z,99.90
2023-05-05T03:12:04.049Z,99.90
2023-05-05T03:14:42.323Z,99.90
2023-05-05T03:17:16.599Z,99.90
2023-05-05T03:19:47.994Z,99.90
2023-05-05T03:22:17.313Z,99.90
2023-05-05T03:24:52.164Z,99.90
2023-05-05T03:27:24.751Z,99.90
2023-05-05T03:29:54.295Z,99.90
2023-05-05T03:32:24.633Z,99.90
2023-05-05T03:34:58.345Z,99.90
2023-05-05T03:37:32.805Z,99.90
2023-05-05T03:40:04.308Z,99.90
2023-05-05T03:42:34.717Z,99.90
2023-05-05T03:45:03.516Z,99.90
2023-05-05T03:47:33.005Z,99.90
2023-05-05T03:50:04.281Z,99.90
2023-05-05T03:52:33.881Z,99.90
2023-05-05T03:55:03.507Z,99.90
2023-05-05T03:57:33.628Z,99.90
2023-05-05T04:00:02.991Z,99.90
2023-05-05T04:02:44.015Z,99.90
2023-05-05T04:05:18.679Z,99.90
2023-05-05T04:07:48.982Z,99.90
2023-05-05T04:10:18.852Z,99.90
2023-05-05T04:12:48.143Z,99.90
2023-05-05T04:15:17.612Z,99.90
2023-05-05T04:17:47.348Z,99.90
2023-05-05T04:20:18.101Z,99.90
2023-05-05T04:22:47.688Z,99.90
2023-05-05T04:25:16.839Z,99.90
2023-05-05T04:27:46.730Z,99.90
2023-05-05T04:30:17.243Z,99.90
2023-05-05T04:32:47.610Z,99.90
2023-05-05T04:35:18.896Z,99.90
2023-05-05T04:37:47.777Z,99.90
2023-05-05T04:40:17.293Z,99.90
2023-05-05T04:42:46.915Z,99.90
2023-05-05T04:45:15.396Z,99.90
2023-05-05T04:47:45.219Z,99.90
2023-05-05T04:50:14.928Z,99.90
2023-05-05T04:52:45.085Z,99.90
2023-05-05T04:55:14.010Z,99.90
2023-05-05T04:57:43.086Z,99.90
2023-05-05T05:00:13.855Z,99.90
2023-05-05T05:02:43.142Z,99.90
2023-05-05T05:05:13.252Z,99.90
2023-05-05T05:07:43.371Z,99.90
2023-05-05T05:10:14.217Z,99.90
2023-05-05T05:12:43.140Z,99.90
2023-05-05T05:15:16.679Z,99.90
2023-05-05T05:17:45.519Z,99.90
2023-05-05T05:20:14.856Z,99.90
2023-05-05T05:22:45.360Z,99.90
2023-05-05T05:25:20.985Z,99.90
2023-05-05T05:28:06.199Z,99.90
2023-05-05T05:30:42.813Z,99.90
2023-05-05T05:33:13.804Z,99.90
2023-05-05T05:35:46.339Z,99.90
2023-05-05T05:38:17.969Z,99.90
2023-05-05T05:40:49.188Z,99.90
2023-05-05T05:43:18.752Z,99.90
2023-05-05T05:45:47.776Z,99.90
2023-05-05T05:48:18.019Z,99.90
2023-05-05T05:50:47.699Z,99.90
2023-05-05T05:53:16.602Z,99.90
2023-05-05T05:55:49.830Z,99.90
2023-05-05T05:58:21.809Z,99.90
2023-05-05T06:00:50.833Z,99.90
2023-05-05T06:03:19.969Z,99.90
2023-05-05T06:05:52.042Z,99.90
2023-05-05T06:08:24.267Z,99.90
2023-05-05T06:10:58.804Z,99.90
2023-05-05T06:13:28.516Z,99.90
2023-05-05T06:16:01.564Z,99.90
2023-05-05T06:18:30.784Z,99.90
2023-05-05T06:21:00.589Z,99.90
2023-05-05T06:23:32.953Z,99.90
2023-05-05T06:26:07.394Z,99.90
2023-05-05T06:28:44.067Z,99.90
2023-05-05T06:31:14.686Z,99.90
2023-05-05T06:33:44.984Z,99.90
2023-05-05T06:36:15.626Z,99.90
2023-05-05T06:38:45.021Z,99.90
2023-05-05T06:41:21.610Z,99.90
2023-05-05T06:43:57.308Z,99.90
2023-05-05T06:46:26.928Z,99.90
2023-05-05T06:48:55.580Z,99.90
2023-05-05T06:51:26.625Z,99.90
2023-05-05T06:53:55.506Z,99.90
2023-05-05T06:56:26.097Z,99.90
2023-05-05T06:58:54.930Z,99.90
2023-05-05T07:01:23.924Z,99.90
2023-05-05T07:03:53.898Z,99.90
2023-05-05T07:06:23.125Z,99.90
2023-05-05T07:08:51.986Z,99.90
2023-05-05T07:11:22.290Z,99.90
2023-05-05T07:13:52.403Z,99.90
2023-05-05T07:16:21.265Z,99.90
2023-05-05T07:18:50.722Z,99.90
2023-05-05T07:21:23.675Z,99.90
2023-05-05T07:23:52.915Z,99.90
2023-05-05T07:26:22.132Z,99.90
2023-05-05T07:28:52.751Z,99.00
2023-05-05T07:31:22.315Z,99.90
2023-05-05T07:33:51.333Z,99.90
2023-05-05T07:36:20.940Z,99.90
2023-05-05T07:38:49.973Z,96.70
2023-05-05T07:41:21.696Z,99.00
2023-05-05T07:43:52.028Z,99.10
2023-05-05T07:46:21.450Z,97.80
2023-05-05T07:48:50.758Z,99.90
2023-05-05T07:51:19.624Z,98.20
2023-05-05T07:53:48.431Z,93.20
2023-05-05T07:56:21.576Z,94.70
2023-05-05T07:58:52.521Z,92.50
2023-05-05T08:01:21.438Z,95.90
2023-05-05T08:03:50.165Z,94.60
2023-05-05T08:06:22.444Z,90.80
2023-05-05T08:08:51.665Z,85.10
2023-05-05T08:11:21.041Z,87.40
2023-05-05T08:13:50.313Z,82.60
2023-05-05T08:16:21.024Z,86.10
2023-05-05T08:18:51.917Z,86.70
2023-05-05T08:21:20.987Z,82.40
2023-05-05T08:23:49.989Z,76.90
2023-05-05T08:26:18.644Z,81.00
2023-05-05T08:28:48.927Z,79.80
2023-05-05T08:31:17.963Z,80.10
2023-05-05T08:33:48.553Z,75.10
2023-05-05T08:36:17.860Z,77.20
2023-05-05T08:38:47.143Z,72.90
2023-05-05T08:41:19.320Z,68.20
2023-05-05T08:43:49.935Z,68.20
2023-05-05T08:46:19.540Z,70.30
2023-05-05T08:48:51.394Z,65.20
2023-05-05T08:51:22.152Z,67.60
2023-05-05T08:54:00.449Z,71.00
2023-05-05T08:56:37.845Z,67.00
2023-05-05T08:59:07.096Z,65.10
2023-05-05T09:01:38.240Z,63.60
2023-05-05T09:04:11.634Z,52.50
2023-05-05T09:06:40.579Z,55.80
2023-05-05T09:09:10.555Z,56.50
2023-05-05T09:11:40.472Z,48.00
2023-05-05T09:14:09.468Z,42.50
2023-05-05T09:16:41.655Z,43.10
2023-05-05T09:19:12.262Z,49.30
2023-05-05T09:21:49.586Z,44.80
2023-05-05T09:24:18.998Z,45.70
2023-05-05T09:26:49.947Z,47.10
2023-05-05T09:29:22.881Z,47.50
2023-05-05T09:32:06.006Z,49.10
2023-05-05T09:34:37.012Z,50.90
2023-05-05T09:37:06.632Z,44.50
2023-05-05T09:39:35.732Z,44.90
2023-05-05T09:42:04.417Z,38.30
2023-05-05T09:44:37.204Z,43.20
2023-05-05T09:47:15.086Z,40.10
2023-05-05T09:50:00.881Z,39.30
2023-05-05T09:52:30.869Z,45.80
2023-05-05T09:55:00.462Z,45.20
2023-05-05T09:57:30.868Z,43.50
2023-05-05T10:00:01.427Z,42.50
2023-05-05T10:02:35.294Z,42.40
2023-05-05T10:05:10.504Z,40.60
2023-05-05T10:07:42.322Z,38.60
2023-05-05T10:10:13.611Z,35.70
2023-05-05T10:12:43.210Z,37.50
2023-05-05T10:15:15.662Z,36.10
2023-05-05T10:20:23.597Z,36.70
2023-05-05T10:22:54.174Z,37.50
2023-05-05T10:25:30.826Z,37.40
2023-05-05T10:28:02.482Z,40.20
2023-05-05T10:30:40.871Z,37.40
2023-05-05T10:35:59.852Z,39.00
2023-05-05T10:38:32.288Z,41.40
2023-05-05T10:41:02.600Z,42.70
2023-05-05T10:43:38.282Z,38.50
2023-05-05T10:46:08.551Z,44.40
2023-05-05T10:48:47.605Z,40.50
2023-05-05T10:51:39.364Z,37.80
2023-05-05T10:54:21.632Z,43.40
2023-05-05T10:56:51.530Z,38.00
2023-05-05T10:59:42.893Z,41.10
2023-05-05T11:02:22.821Z,44.60
2023-05-05T11:05:18.238Z,39.20
2023-05-05T11:07:49.744Z,42.30
2023-05-05T11:10:21.119Z,38.50
2023-05-05T11:13:21.997Z,42.30
2023-05-05T11:15:51.894Z,43.00
2023-05-05T11:18:36.192Z,38.00
2023-05-05T11:21:20.013Z,39.30
2023-05-05T11:23:52.210Z,40.20
2023-05-05T11:26:51.897Z,40.10
2023-05-05T11:29:21.109Z,37.60
2023-05-05T11:32:13.033Z,38.10
2023-05-05T11:34:51.422Z,42.20
2023-05-05T11:37:25.755Z,42.70
2023-05-05T11:40:06.183Z,41.30
2023-05-05T11:42:35.846Z,40.00
2023-05-05T11:45:20.914Z,40.80
2023-05-05T11:47:50.006Z,39.00
2023-05-05T11:50:22.042Z,37.40
2023-05-05T11:52:50.857Z,39.50
2023-05-05T11:55:24.914Z,40.60
2023-05-05T11:57:53.597Z,36.80
2023-05-05T12:00:33.861Z,40.50
2023-05-05T12:03:02.626Z,40.10
2023-05-05T12:05:37.443Z,37.70
2023-05-05T12:08:07.114Z,38.60
2023-05-05T12:10:37.226Z,40.20
2023-05-05T12:13:07.540Z,40.40
2023-05-05T12:15:36.715Z,43.80
2023-05-05T12:18:07.430Z,38.50
2023-05-05T12:20:36.948Z,39.90
2023-05-05T12:23:06.582Z,41.00
2023-05-05T12:25:41.525Z,38.70
2023-05-05T12:28:10.653Z,38.20
2023-05-05T12:30:40.277Z,41.10
2023-05-05T12:33:10.883Z,40.30
2023-05-05T12:35:39.983Z,40.00
2023-05-05T12:38:08.938Z,41.00
2023-05-05T12:40:54.259Z,40.40
2023-05-05T12:43:30.995Z,42.00
2023-05-05T12:46:08.707Z,40.20
2023-05-05T12:48:40.005Z,40.60
2023-05-05T12:51:17.393Z,39.40
2023-05-05T12:53:46.992Z,36.10
2023-05-05T12:56:37.587Z,41.80
2023-05-05T12:59:08.384Z,41.00
2023-05-05T13:01:37.789Z,36.80
2023-05-05T13:04:12.363Z,38.20
2023-05-05T13:06:43.384Z,38.70
2023-05-05T13:09:25.338Z,39.80
2023-05-05T13:11:57.096Z,40.10
2023-05-05T13:14:26.143Z,41.00
2023-05-05T13:16:55.372Z,38.90
2023-05-05T13:19:25.225Z,40.50
2023-05-05T13:21:54.087Z,39.40
2023-05-05T13:24:34.477Z,40.20
2023-05-05T13:27:13.051Z,42.20
2023-05-05T13:29:43.009Z,39.20
2023-05-05T13:32:12.091Z,40.90
2023-05-05T13:34:41.863Z,40.60
2023-05-05T13:37:11.248Z,40.40
2023-05-05T13:39:40.191Z,40.60
2023-05-05T13:42:09.930Z,41.30
2023-05-05T13:44:40.580Z,41.20
2023-05-05T13:47:09.595Z,39.50
2023-05-05T13:49:38.576Z,42.80
2023-05-05T13:52:07.959Z,40.60
2023-05-05T13:54:36.927Z,41.00
2023-05-05T13:57:08.625Z,43.60
2023-05-05T13:59:37.795Z,44.90
2023-05-05T14:02:08.360Z,45.30
2023-05-05T14:04:37.883Z,46.80
2023-05-05T14:07:06.943Z,46.80
2023-05-05T14:09:36.168Z,45.10
2023-05-05T14:12:05.601Z,44.80
2023-05-05T14:14:35.045Z,43.50
2023-05-05T14:17:03.633Z,43.20
2023-05-05T14:19:34.318Z,46.30
2023-05-05T14:22:03.130Z,43.30
2023-05-05T14:24:32.138Z,43.90
2023-05-05T14:27:01.511Z,44.40
2023-05-05T14:29:30.360Z,44.50
2023-05-05T14:31:59.283Z,44.60
2023-05-05T14:34:28.398Z,46.20
2023-05-05T14:36:59.337Z,45.40
2023-05-05T14:39:28.458Z,43.90
2023-05-05T14:41:57.040Z,43.70
2023-05-05T14:44:25.964Z,45.30
2023-05-05T14:46:55.072Z,44.90
2023-05-05T14:49:23.797Z,43.80
2023-05-05T14:51:53.943Z,44.40
2023-05-05T14:54:28.648Z,45.80
2023-05-05T14:56:58.595Z,46.00
2023-05-05T14:59:27.845Z,46.70
2023-05-05T15:01:57.955Z,45.60
2023-05-05T15:04:27.301Z,45.50
2023-05-05T15:06:57.384Z,46.70
2023-05-05T15:09:28.407Z,47.60
2023-05-05T15:11:57.597Z,47.90
2023-05-05T15:14:27.216Z,46.70
2023-05-05T15:16:55.871Z,46.50
2023-05-05T15:19:24.643Z,46.60
2023-05-05T15:21:54.782Z,47.20
2023-05-05T15:24:23.581Z,47.70
2023-05-05T15:26:53.554Z,47.50
2023-05-05T15:29:22.172Z,47.70
2023-05-05T15:31:51.067Z,49.10
2023-05-05T15:34:19.754Z,48.60
2023-05-05T15:36:48.613Z,49.10
2023-05-05T15:39:17.435Z,48.60
2023-05-05T15:41:46.148Z,48.80
2023-05-05T15:44:16.525Z,49.30
2023-05-05T15:46:45.179Z,49.10
2023-05-05T15:49:13.845Z,49.30
2023-05-05T15:51:42.443Z,49.70
2023-05-05T15:54:11.791Z,50.10
2023-05-05T15:56:40.360Z,50.60
2023-05-05T15:59:08.941Z,49.70
2023-05-05T16:01:39.556Z,50.80
2023-05-05T16:04:08.603Z,50.70
2023-05-05T16:06:37.223Z,50.10
2023-05-05T16:09:06.515Z,51.10
2023-05-05T16:11:35.726Z,50.50
2023-05-05T16:14:05.356Z,51.40
2023-05-05T16:16:34.089Z,49.80
2023-05-05T16:19:06.921Z,50.80
2023-05-05T16:21:35.639Z,50.80
2023-05-05T16:24:04.848Z,51.00
2023-05-05T16:26:36.216Z,51.90
2023-05-05T16:29:05.130Z,52.30
2023-05-05T16:31:34.298Z,52.40
2023-05-05T16:34:05.081Z,53.40
2023-05-05T16:36:33.870Z,53.70
2023-05-05T16:39:02.930Z,54.30
2023-05-05T16:41:31.590Z,54.00
2023-05-05T16:44:00.056Z,53.40
2023-05-05T16:46:28.712Z,52.90
2023-05-05T16:48:57.525Z,53.60
2023-05-05T16:51:29.144Z,52.90
2023-05-05T16:53:58.082Z,53.90
2023-05-05T16:56:27.411Z,52.40
2023-05-05T16:58:56.349Z,53.70
2023-05-05T17:01:25.512Z,53.80
2023-05-05T17:03:55.891Z,53.70
2023-05-05T17:06:26.937Z,53.70
2023-05-05T17:08:57.464Z,52.90
2023-05-05T17:11:27.133Z,53.70
2023-05-05T17:13:56.254Z,54.30
2023-05-05T17:16:25.426Z,53.80
2023-05-05T17:18:55.540Z,55.70
2023-05-05T17:21:24.974Z,54.30
2023-05-05T17:23:53.649Z,55.80
2023-05-05T17:26:24.272Z,56.10
2023-05-05T17:28:53.237Z,56.60
2023-05-05T17:31:23.184Z,56.80
2023-05-05T17:33:51.866Z,57.00
2023-05-05T17:36:21.918Z,56.70
2023-05-05T17:38:50.572Z,58.30
2023-05-05T17:41:19.165Z,58.10
2023-05-05T17:43:49.263Z,58.50
2023-05-05T17:46:17.945Z,58.90
2023-05-05T17:48:47.358Z,60.00
2023-05-05T17:51:16.095Z,60.60
2023-05-05T17:53:44.698Z,60.80
2023-05-05T17:56:14.065Z,61.70
2023-05-05T17:58:44.330Z,61.70
2023-05-05T18:01:22.855Z,62.20
2023-05-05T18:03:51.828Z,62.60
2023-05-05T18:06:20.696Z,63.40
2023-05-05T18:08:53.262Z,64.80
2023-05-05T18:11:27.136Z,64.40
2023-05-05T18:13:56.576Z,64.70
2023-05-05T18:16:40.752Z,66.10
2023-05-05T18:19:09.839Z,67.40
2023-05-05T18:21:38.449Z,68.80
2023-05-05T18:24:19.288Z,69.60
2023-05-05T18:26:51.141Z,71.00
2023-05-05T18:29:20.585Z,71.90
2023-05-05T18:31:55.038Z,72.80
2023-05-05T18:34:23.884Z,74.10
2023-05-05T18:36:54.478Z,74.20
2023-05-05T18:39:23.744Z,75.30
2023-05-05T18:41:54.309Z,75.80
2023-05-05T18:44:23.131Z,76.30
2023-05-05T18:46:53.526Z,76.80
2023-05-05T18:49:23.652Z,77.30
2023-05-05T18:51:52.408Z,77.30
2023-05-05T18:54:22.700Z,78.00
2023-05-05T18:56:52.876Z,78.20
2023-05-05T18:59:21.929Z,78.20
2023-05-05T19:01:50.473Z,79.20
2023-05-05T19:04:30.672Z,79.60
2023-05-05T19:07:00.518Z,80.20
2023-05-05T19:09:30.107Z,80.60
2023-05-05T19:12:00.489Z,81.40
2023-05-05T19:14:29.577Z,82.10
2023-05-05T19:16:59.382Z,81.80
2023-05-05T19:19:29.949Z,82.70
2023-05-05T19:21:59.557Z,83.40
2023-05-05T19:24:29.406Z,84.50
2023-05-05T19:26:58.237Z,85.70
2023-05-05T19:29:26.968Z,86.60
2023-05-05T19:31:56.251Z,87.40
2023-05-05T19:34:25.146Z,89.10
2023-05-05T19:36:56.613Z,89.80
2023-05-05T19:39:26.665Z,90.00
2023-05-05T19:41:55.797Z,90.60
2023-05-05T19:44:27.765Z,90.70
2023-05-05T19:46:56.562Z,90.90
2023-05-05T19:49:25.503Z,91.60
2023-05-05T19:51:56.855Z,91.60
2023-05-05T19:54:26.361Z,91.60
2023-05-05T19:56:57.255Z,91.80
2023-05-05T19:59:26.289Z,92.50
2023-05-05T20:01:55.775Z,92.90
2023-05-05T20:04:26.075Z,93.20
2023-05-05T20:06:57.610Z,93.40
2023-05-05T20:09:27.964Z,94.40
2023-05-05T20:11:58.044Z,94.90
2023-05-05T20:14:27.112Z,95.40
2023-05-05T20:16:56.451Z,95.70
2023-05-05T20:19:25.336Z,96.90
2023-05-05T20:21:55.973Z,97.00
2023-05-05T20:24:25.225Z,97.40
2023-05-05T20:26:53.976Z,97.60
2023-05-05T20:29:23.372Z,98.60
2023-05-05T20:31:52.461Z,99.10
2023-05-05T20:34:24.854Z,99.60
2023-05-05T20:36:54.980Z,99.50
2023-05-05T20:39:25.412Z,99.90
2023-05-05T20:41:54.804Z,99.90
2023-05-05T20:44:23.938Z,99.90
2023-05-05T20:46:52.702Z,99.90
2023-05-05T20:49:21.739Z,99.90
2023-05-05T20:51:52.048Z,99.90
2023-05-05T20:54:21.783Z,99.90
2023-05-05T20:56:53.414Z,99.90
2023-05-05T20:59:28.757Z,99.90
2023-05-05T21:02:00.837Z,99.90
2023-05-05T21:04:32.397Z,99.90
2023-05-05T21:07:01.506Z,99.90
2023-05-05T21:09:31.952Z,99.90
2023-05-05T21:12:02.778Z,99.90
2023-05-05T21:14:31.560Z,99.90
2023-05-05T21:17:00.851Z,99.90
2023-05-05T21:19:30.399Z,99.90
2023-05-05T21:21:59.442Z,99.90
2023-05-05T21:24:28.680Z,99.90
2023-05-05T21:26:58.047Z,99.90
2023-05-05T21:29:28.408Z,99.90
2023-05-05T21:31:57.948Z,99.90
2023-05-05T21:34:27.057Z,99.90
2023-05-05T21:36:57.463Z,99.90
2023-05-05T21:39:26.679Z,99.90
2023-05-05T21:41:55.964Z,99.90
2023-05-05T21:44:26.271Z,99.90
2023-05-05T21:46:57.408Z,99.90
2023-05-05T21:49:27.149Z,99.90
2023-05-05T21:51:56.118Z,99.90
2023-05-05T21:54:25.185Z,99.90
2023-05-05T21:56:53.830Z,99.90
2023-05-05T21:59:22.925Z,99.90
2023-05-05T22:01:52.419Z,99.90
2023-05-05T22:04:23.878Z,99.90
2023-05-05T22:06:52.800Z,99.90
2023-05-05T22:09:21.997Z,99.90
2023-05-05T22:11:51.039Z,99.90
2023-05-05T22:14:20.001Z,99.90
2023-05-05T22:16:49.926Z,99.90
2023-05-05T22:19:18.975Z,99.90
2023-05-05T22:21:49.372Z,99.90
2023-05-05T22:24:32.614Z,99.90
2023-05-05T22:27:02.038Z,99.90
2023-05-05T22:29:30.696Z,99.90
2023-05-05T22:31:59.405Z,99.90
2023-05-05T22:34:28.076Z,99.90
2023-05-05T22:36:59.162Z,99.90
2023-05-05T22:39:27.949Z,99.90
2023-05-05T22:41:56.733Z,99.90
2023-05-05T22:44:25.906Z,99.90
2023-05-05T22:46:54.937Z,99.90
2023-05-05T22:49:24.279Z,99.90
2023-05-05T22:51:53.994Z,99.90
2023-05-05T22:54:24.121Z,99.90
2023-05-05T22:56:52.777Z,99.90
2023-05-05T22:59:21.694Z,99.90
2023-05-05T23:01:50.237Z,99.90
2023-05-05T23:04:19.717Z,99.90
2023-05-05T23:06:49.067Z,99.90
2023-05-05T23:09:19.188Z,99.90
2023-05-05T23:11:49.553Z,99.90
2023-05-05T23:14:19.575Z,99.90
2023-05-05T23:16:48.774Z,99.90
2023-05-05T23:19:17.419Z,99.90
2023-05-05T23:21:53.364Z,99.90
2023-05-05T23:24:23.222Z,99.90
2023-05-05T23:26:53.435Z,99.90
2023-05-05T23:29:22.442Z,99.90
2023-05-05T23:31:51.269Z,99.90
2023-05-05T23:34:20.238Z,99.90
2023-05-05T23:36:49.389Z,99.90
2023-05-05T23:39:18.122Z,99.90
2023-05-05T23:41:46.737Z,99.90
2023-05-05T23:44:24.314Z,99.90
2023-05-05T23:46:56.390Z,99.90
2023-05-05T23:49:26.647Z,99.90
2023-05-05T23:51:55.757Z,99.90
2023-05-05T23:54:24.540Z,99.90
2023-05-05T23:56:55.040Z,99.90
2023-05-05T23:59:27.257Z,99.90
